Terminal Aerodrome Forecast
Issued by NWS Northern Indiana

Home | Current Version | Previous Version | Text Only | Print | Product List | Glossary On
Versions: 1 2 3 4 5 6 7 8 9 10 11 12 13 14 15 16 17 18
487
FTUS43 KIWX 270533
TAFFWA
TAF
KFWA 270533Z 2706/2806 16008KT P6SM BKN150 WS020/19040KT
     FM270900 18014KT P6SM BKN100 WS020/19045KT
     FM271200 20017G25KT P6SM -SHRA VCTS OVC025CB
     FM271700 24017KT P6SM BKN020
     FM280200 25008KT P6SM SCT030=

USA.gov is the U.S. government's official web portal to all federal, state and local government web resources and services.